Time;durP1;ratioP1;P1;durP2;ratioP2;P2;SDS_P1;SDS_P2;PMS_P1;PMS_P2;Temp;Humidity;BMP_temperature;BMP_pressure;BME280_temperature;BME280_humidity;BME280_pressure;Samples;Min_cycle;Max_cycle;Signal;HPM_P1;HPM_P2
2021/12/14 00:00:43;;;;;;;7.57;6.87;;;;;;;4.26;100.00;99802.41;5051271;28;20201;-62
2021/12/14 00:03:11;;;;;;;6.67;6.13;;;;;;;4.24;100.00;99809.25;5051218;28;20200;-61
2021/12/14 00:05:39;;;;;;;7.63;6.80;;;;;;;4.15;100.00;99782.72;5051115;28;20203;-61
2021/12/14 00:08:08;;;;;;;7.90;7.10;;;;;;;4.26;100.00;99810.13;5051042;28;20279;-61
2021/12/14 00:11:07;;;;;;;8.50;7.30;;;;;;;4.17;100.00;99807.56;5051033;28;20283;-60
2021/12/14 00:13:48;;;;;;;7.47;6.70;;;;;;;4.17;100.00;99817.81;5050808;28;20243;-61
2021/12/14 00:16:16;;;;;;;7.53;6.83;;;;;;;4.18;100.00;99816.09;5050957;28;20205;-61
2021/12/14 00:18:44;;;;;;;7.83;7.03;;;;;;;4.10;100.00;99812.66;5050933;28;20204;-61
2021/12/14 00:21:19;;;;;;;9.07;6.60;;;;;;;4.15;100.00;99819.53;5050740;28;20196;-61
2021/12/14 00:24:07;;;;;;;7.27;6.67;;;;;;;4.17;100.00;99824.66;5050795;28;20215;-62
2021/12/14 00:26:36;;;;;;;6.83;6.20;;;;;;;4.19;100.00;99826.38;5050851;28;20215;-61
2021/12/14 00:29:04;;;;;;;7.33;6.63;;;;;;;4.10;100.00;99828.06;5050774;28;20219;-61
2021/12/14 00:31:35;;;;;;;6.77;6.00;;;;;;;4.16;100.00;99834.09;5050779;28;20283;-61
2021/12/14 00:34:04;;;;;;;6.37;5.83;;;;;;;4.14;100.00;99840.06;5051053;28;20633;-61
2021/12/14 00:36:31;;;;;;;7.07;6.37;;;;;;;4.18;100.00;99837.50;5050668;28;20311;-61
2021/12/14 00:38:58;;;;;;;6.53;5.90;;;;;;;4.03;100.00;99800.66;5050690;28;20698;-60
2021/12/14 00:41:29;;;;;;;5.63;5.13;;;;;;;4.22;100.00;99840.94;5050632;28;20203;-62
2021/12/14 00:43:57;;;;;;;7.23;6.53;;;;;;;3.84;100.00;99818.56;5050405;28;20201;-63
2021/12/14 00:46:25;;;;;;;6.90;6.20;;;;;;;4.01;100.00;99845.19;5050540;28;20291;-61
2021/12/14 00:48:54;;;;;;;7.43;5.90;;;;;;;4.07;100.00;99843.47;5050473;28;20292;-60
2021/12/14 00:51:27;;;;;;;6.27;5.67;;;;;;;3.94;100.00;99845.16;5050475;28;20203;-61
2021/12/14 00:53:54;;;;;;;6.63;6.03;;;;;;;3.98;100.00;99839.16;5050545;28;20199;-61
2021/12/14 00:56:21;;;;;;;7.13;6.23;;;;;;;3.93;100.00;99835.75;5050349;28;20193;-61
2021/12/14 00:58:49;;;;;;;6.43;5.53;;;;;;;3.96;100.00;99840.88;5050149;28;20292;-61
2021/12/14 01:01:21;;;;;;;6.23;5.63;;;;;;;3.97;100.00;99845.16;5050390;28;20624;-60
2021/12/14 01:03:52;;;;;;;6.40;5.77;;;;;;;3.83;100.00;99844.28;5050444;28;20685;-60
2021/12/14 01:06:22;;;;;;;6.53;5.93;;;;;;;3.81;100.00;99841.69;5050156;28;20204;-61
2021/12/14 01:08:50;;;;;;;7.13;5.90;;;;;;;3.78;100.00;99845.94;5050142;28;20205;-60
2021/12/14 01:11:21;;;;;;;6.33;5.73;;;;;;;3.71;100.00;99854.50;5049996;28;20200;-61
2021/12/14 01:13:59;;;;;;;5.77;5.23;;;;;;;3.70;100.00;99852.78;5049998;28;20600;-62
2021/12/14 01:16:34;;;;;;;6.73;5.53;;;;;;;3.70;100.00;99852.78;5050015;28;20205;-62
2021/12/14 01:19:13;;;;;;;6.27;5.67;;;;;;;3.68;100.00;99849.34;5050074;28;20199;-62
2021/12/14 01:22:01;;;;;;;5.90;5.40;;;;;;;3.63;100.00;99857.84;5049916;28;20632;-62
2021/12/14 01:25:00;;;;;;;5.40;4.90;;;;;;;3.72;100.00;99856.22;5049969;28;20289;-62
2021/12/14 01:27:27;;;;;;;5.47;4.97;;;;;;;3.65;100.00;99850.16;5049821;28;20199;-63
2021/12/14 01:29:55;;;;;;;5.30;4.90;;;;;;;3.64;100.00;99854.44;5050134;28;20202;-62
2021/12/14 01:32:28;;;;;;;5.17;4.70;;;;;;;3.52;100.00;99864.66;5049889;28;20204;-63
2021/12/14 01:34:55;;;;;;;5.37;4.97;;;;;;;3.55;100.00;99854.41;5049927;28;20292;-61
2021/12/14 01:37:28;;;;;;;5.10;4.70;;;;;;;3.58;100.00;99859.56;5049879;28;20246;-61
2021/12/14 01:40:05;;;;;;;4.67;4.27;;;;;;;3.56;100.00;99856.13;5050308;28;20203;-63
2021/12/14 01:42:35;;;;;;;5.47;4.97;;;;;;;3.50;100.00;99856.09;5049658;28;20675;-62
2021/12/14 01:45:09;;;;;;;4.97;4.53;;;;;;;3.55;100.00;99853.56;5049912;28;20233;-61
2021/12/14 01:47:40;;;;;;;5.10;4.60;;;;;;;3.43;100.00;99849.22;5049985;28;20651;-60
2021/12/14 01:50:10;;;;;;;5.10;4.70;;;;;;;3.49;100.00;99856.97;5049840;28;20204;-60
2021/12/14 01:52:39;;;;;;;4.40;4.00;;;;;;;3.54;100.00;99857.81;5052305;28;20195;-62
2021/12/14 01:55:10;;;;;;;4.60;4.20;;;;;;;3.52;100.00;99856.09;5053711;28;20530;-62
2021/12/14 01:57:38;;;;;;;5.07;4.60;;;;;;;3.59;100.00;99866.41;5053924;28;20600;-62
2021/12/14 02:00:07;;;;;;;4.47;4.17;;;;;;;3.53;100.00;99865.50;5053651;28;20204;-62
2021/12/14 02:02:42;;;;;;;5.03;4.63;;;;;;;3.50;100.00;99863.78;5053661;28;20317;-61
2021/12/14 02:05:18;;;;;;;5.07;4.67;;;;;;;3.44;100.00;99852.63;5053547;28;20195;-60
2021/12/14 02:07:47;;;;;;;4.00;3.70;;;;;;;3.36;100.00;99847.47;5053496;28;20219;-62
2021/12/14 02:10:18;;;;;;;4.77;4.37;;;;;;;3.45;100.00;99857.78;5053317;28;20239;-61
2021/12/14 02:12:45;;;;;;;3.80;3.50;;;;;;;3.44;100.00;99857.78;5053297;28;20255;-63
2021/12/14 02:15:16;;;;;;;4.00;3.70;;;;;;;3.38;100.00;99857.75;5053316;28;20590;-62
2021/12/14 02:17:43;;;;;;;4.27;3.97;;;;;;;3.29;100.00;99866.22;5053185;28;20223;-63
2021/12/14 02:20:12;;;;;;;4.10;3.80;;;;;;;3.25;100.00;99859.38;5053560;28;20222;-62
2021/12/14 02:22:41;;;;;;;4.30;3.90;;;;;;;3.26;100.00;99863.66;5053309;28;20291;-60
2021/12/14 02:25:11;;;;;;;4.40;4.10;;;;;;;3.13;100.00;99836.22;5053187;28;20198;-62
2021/12/14 02:27:40;;;;;;;5.00;4.50;;;;;;;3.21;100.00;99862.78;5053182;28;20298;-61
2021/12/14 02:30:12;;;;;;;5.17;3.87;;;;;;;3.24;100.00;99860.22;5053181;28;20718;-61
2021/12/14 02:32:39;;;;;;;3.90;3.60;;;;;;;3.22;100.00;99864.50;5053065;28;20285;-62
2021/12/14 02:35:11;;;;;;;3.73;3.43;;;;;;;3.14;100.00;99861.03;5053190;28;20326;-61
2021/12/14 02:37:44;;;;;;;4.20;3.80;;;;;;;3.11;100.00;99855.88;5052946;28;20429;-61
2021/12/14 02:40:20;;;;;;;3.77;3.33;;;;;;;3.01;100.00;99859.22;5053036;28;20683;-60
2021/12/14 02:42:49;;;;;;;4.00;3.70;;;;;;;2.99;100.00;99856.63;5052846;28;20637;-60
2021/12/14 02:45:17;;;;;;;3.73;3.43;;;;;;;2.99;100.00;99866.91;5052731;28;20203;-61
2021/12/14 02:47:44;;;;;;;3.70;3.10;;;;;;;2.98;100.00;99869.44;5052713;28;20286;-61
2021/12/14 02:50:12;;;;;;;3.63;3.37;;;;;;;2.98;100.00;99848.94;5052761;28;20205;-60
2021/12/14 02:52:41;;;;;;;3.77;3.40;;;;;;;2.90;100.00;99843.75;5052707;28;20207;-60
2021/12/14 02:55:12;;;;;;;3.40;3.10;;;;;;;2.97;100.00;99867.72;5052484;28;20197;-60
2021/12/14 02:57:43;;;;;;;4.00;3.70;;;;;;;2.89;100.00;99862.56;5052860;28;20245;-60
2021/12/14 03:00:15;;;;;;;3.97;3.67;;;;;;;2.79;100.00;99860.75;5052810;28;20693;-60
2021/12/14 03:02:42;;;;;;;4.57;3.57;;;;;;;2.76;100.00;99859.03;5052113;28;20207;-62
2021/12/14 03:05:12;;;;;;;3.73;3.43;;;;;;;2.81;100.00;99862.50;5052049;28;20289;-60
2021/12/14 03:07:44;;;;;;;4.03;3.70;;;;;;;2.79;100.00;99860.75;5052359;28;20285;-60
2021/12/14 03:10:31;;;;;;;3.67;3.30;;;;;;;2.85;100.00;99864.22;5052656;28;20684;-62
2021/12/14 03:13:00;;;;;;;3.20;2.90;;;;;;;2.78;100.00;99861.59;5052253;28;20259;-62
2021/12/14 03:15:31;;;;;;;3.13;2.93;;;;;;;2.77;100.00;99867.59;5052459;28;20561;-60
2021/12/14 03:18:00;;;;;;;3.13;2.60;;;;;;;2.76;100.00;99868.41;5052134;28;20604;-60
2021/12/14 03:20:32;;;;;;;3.80;3.50;;;;;;;2.72;100.00;99867.53;5052071;28;20203;-61
2021/12/14 03:23:03;;;;;;;3.30;3.00;;;;;;;2.74;100.00;99868.41;5052223;28;20203;-59
2021/12/14 03:25:32;;;;;;;3.57;3.27;;;;;;;2.71;100.00;99868.38;5052077;28;20289;-62
2021/12/14 03:27:59;;;;;;;4.30;3.90;;;;;;;2.74;100.00;99865.84;5051912;28;20200;-60
2021/12/14 03:30:33;;;;;;;3.60;3.30;;;;;;;2.79;100.00;99869.31;5051969;28;20614;-61
2021/12/14 03:33:05;;;;;;;3.63;3.33;;;;;;;2.85;100.00;99878.75;5051807;28;20300;-62
2021/12/14 03:35:41;;;;;;;3.87;3.57;;;;;;;2.80;100.00;99876.16;5051870;28;20219;-61
2021/12/14 03:38:13;;;;;;;3.43;3.13;;;;;;;2.77;100.00;99881.25;5051707;28;20222;-61
2021/12/14 03:40:41;;;;;;;5.00;3.03;;;;;;;2.79;100.00;99879.56;5051787;28;20275;-60
2021/12/14 03:43:08;;;;;;;3.43;3.13;;;;;;;2.73;100.00;99886.34;5051559;28;20201;-59
2021/12/14 03:45:35;;;;;;;3.27;2.70;;;;;;;2.77;100.00;99877.84;5051744;28;20209;-59
2021/12/14 03:48:04;;;;;;;3.90;3.47;;;;;;;2.69;100.00;99876.91;5051478;28;20281;-59
2021/12/14 03:50:34;;;;;;;5.03;3.20;;;;;;;2.66;100.00;99876.88;5051638;28;20653;-61
2021/12/14 03:53:01;;;;;;;3.40;3.10;;;;;;;2.49;100.00;99848.53;5051395;28;20203;-60
2021/12/14 03:55:33;;;;;;;3.10;2.90;;;;;;;2.78;100.00;99889.81;5051391;28;20197;-60
2021/12/14 03:58:00;;;;;;;2.97;2.77;;;;;;;2.72;100.00;99894.88;5051145;28;20220;-62
2021/12/14 04:00:39;;;;;;;3.83;3.17;;;;;;;2.67;100.00;99894.84;5047557;28;20193;-60
2021/12/14 04:03:11;;;;;;;2.60;2.40;;;;;;;2.66;100.00;99894.81;5030999;28;20662;-60
2021/12/14 04:05:38;;;;;;;3.03;2.83;;;;;;;2.55;100.00;99880.22;5030798;28;20290;-60
2021/12/14 04:08:06;;;;;;;4.00;3.23;;;;;;;2.62;100.00;99896.50;5030199;28;20200;-59
2021/12/14 04:10:36;;;;;;;3.40;3.10;;;;;;;2.47;100.00;99901.50;5030913;28;20202;-61
2021/12/14 04:13:05;;;;;;;3.13;2.90;;;;;;;2.63;100.00;99899.91;5040603;28;20320;-60
2021/12/14 04:15:33;;;;;;;3.23;2.93;;;;;;;2.64;100.00;99897.38;5037665;28;20285;-60
2021/12/14 04:18:00;;;;;;;3.57;3.37;;;;;;;2.68;100.00;99894.00;5037663;28;20222;-61
2021/12/14 04:20:30;;;;;;;4.20;3.80;;;;;;;2.59;100.00;99904.16;5032394;28;20204;-62
2021/12/14 04:22:58;;;;;;;6.43;4.10;;;;;;;2.66;100.00;99913.63;5035554;28;20594;-62
2021/12/14 04:25:29;;;;;;;5.23;4.00;;;;;;;2.61;100.00;99899.91;5036528;28;20195;-62
2021/12/14 04:27:59;;;;;;;3.27;3.07;;;;;;;2.66;100.00;99913.63;5034136;28;20264;-60
2021/12/14 04:30:28;;;;;;;5.43;3.03;;;;;;;2.67;100.00;99912.78;5028050;28;20592;-62
2021/12/14 04:33:02;;;;;;;2.97;2.77;;;;;;;2.68;100.00;99918.78;5031424;28;20194;-62
2021/12/14 04:35:32;;;;;;;3.50;3.30;;;;;;;2.81;100.00;99918.03;5037793;28;20201;-63
2021/12/14 04:38:06;;;;;;;3.10;2.90;;;;;;;2.84;100.00;99918.03;5032370;28;20384;-63
2021/12/14 04:51:56;;;;;;;3.30;3.10;;;;;;;2.79;100.00;99918.03;5031277;28;20641;-62
2021/12/14 04:51:58;;;;;;;3.00;2.80;;;;;;;2.59;100.00;99927.22;5011304;28;20706;-61
2021/12/14 04:54:26;;;;;;;3.27;3.07;;;;;;;2.48;100.00;99921.97;5038608;28;20313;-62
2021/12/14 04:56:53;;;;;;;3.67;3.17;;;;;;;2.46;100.00;99926.25;5041276;28;20342;-59
2021/12/14 04:59:25;;;;;;;3.50;3.17;;;;;;;2.53;100.00;99927.16;5035731;28;20223;-60
2021/12/14 05:01:56;;;;;;;3.47;3.17;;;;;;;2.53;100.00;99924.59;5040343;28;20230;-60
2021/12/14 05:04:25;;;;;;;3.17;2.97;;;;;;;2.48;100.00;99933.94;5028034;28;20311;-60
2021/12/14 05:07:02;;;;;;;3.10;2.90;;;;;;;2.49;100.00;99926.25;5035210;28;20344;-59
2021/12/14 05:09:32;;;;;;;3.60;3.30;;;;;;;2.52;100.00;99938.25;5025313;28;20217;-72
2021/12/14 05:12:02;;;;;;;3.70;3.40;;;;;;;2.48;100.00;99933.94;5034538;28;20228;-62
2021/12/14 05:14:31;;;;;;;3.50;3.20;;;;;;;2.46;100.00;99938.19;5028879;28;20233;-63
2021/12/14 05:17:01;;;;;;;3.93;3.50;;;;;;;2.48;100.00;99941.63;5027709;28;20319;-63
2021/12/14 05:19:31;;;;;;;3.50;3.20;;;;;;;2.43;100.00;99945.84;5025807;28;20255;-66
2021/12/14 05:22:03;;;;;;;4.70;4.30;;;;;;;2.34;100.00;99936.34;5028601;28;20242;-66
2021/12/14 05:24:30;;;;;;;4.37;3.97;;;;;;;2.35;100.00;99944.91;5028780;28;20227;-64
2021/12/14 05:27:00;;;;;;;4.37;3.97;;;;;;;2.38;100.00;99950.03;5028146;28;20252;-66
2021/12/14 05:29:32;;;;;;;5.40;4.90;;;;;;;2.37;100.00;99948.34;5030048;28;20302;-64
2021/12/14 05:32:03;;;;;;;3.93;3.47;;;;;;;2.37;100.00;99954.31;5036877;28;20238;-64
2021/12/14 05:34:31;;;;;;;3.20;3.00;;;;;;;2.33;100.00;99954.28;5049539;28;20286;-65
2021/12/14 05:36:59;;;;;;;3.10;2.90;;;;;;;2.31;100.00;99961.06;5049662;28;20257;-65
2021/12/14 05:39:47;;;;;;;3.33;3.13;;;;;;;2.28;100.00;99955.91;5039221;28;20657;-65
2021/12/14 05:45:06;;;;;;;3.43;3.13;;;;;;;2.33;100.00;99969.63;5028815;28;20341;-65
2021/12/14 05:47:42;;;;;;;3.60;3.30;;;;;;;2.30;100.00;99970.47;5025971;28;20313;-63
2021/12/14 05:50:13;;;;;;;3.20;3.00;;;;;;;2.27;100.00;99967.84;5028765;28;20213;-63
2021/12/14 05:52:40;;;;;;;3.77;3.47;;;;;;;2.25;100.00;99963.56;5029259;28;20867;-62
2021/12/14 05:55:08;;;;;;;4.33;3.40;;;;;;;2.24;100.00;99962.72;5029356;28;20236;-62
2021/12/14 05:57:36;;;;;;;3.10;2.83;;;;;;;2.31;100.00;99971.31;5029390;28;20756;-63
2021/12/14 06:00:05;;;;;;;3.40;3.20;;;;;;;2.19;100.00;99972.88;5029256;28;20245;-62
2021/12/14 06:02:37;;;;;;;3.00;2.80;;;;;;;2.12;100.00;99955.75;5041743;28;20290;-62
2021/12/14 06:05:06;;;;;;;3.20;3.00;;;;;;;2.18;100.00;99972.88;5038993;28;20218;-63
2021/12/14 06:07:33;;;;;;;4.77;3.73;;;;;;;2.08;100.00;99948.00;5028468;28;20217;-60
2021/12/14 06:10:00;;;;;;;4.67;4.27;;;;;;;2.14;100.00;99976.25;5028613;28;20213;-61
2021/12/14 06:12:30;;;;;;;5.27;4.33;;;;;;;2.26;100.00;99975.53;5028047;28;20564;-66
2021/12/14 06:14:59;;;;;;;3.77;3.47;;;;;;;2.24;100.00;99982.34;5027757;28;20228;-62
2021/12/14 06:17:30;;;;;;;4.13;3.83;;;;;;;2.22;100.00;99961.84;5028596;28;20266;-62
2021/12/14 06:20:00;;;;;;;5.03;4.60;;;;;;;2.19;100.00;99980.56;5028901;28;20623;-62
2021/12/14 06:22:27;;;;;;;4.17;3.87;;;;;;;2.22;100.00;99981.47;5028880;28;20226;-61
2021/12/14 06:24:57;;;;;;;5.23;4.50;;;;;;;2.20;100.00;99978.88;5028974;28;20312;-61
2021/12/14 06:27:27;;;;;;;3.63;3.43;;;;;;;2.17;100.00;99987.38;5029003;28;20225;-62
2021/12/14 06:29:57;;;;;;;4.20;3.70;;;;;;;2.23;100.00;99983.19;5028364;28;20251;-64
2021/12/14 06:32:28;;;;;;;5.60;4.00;;;;;;;2.23;100.00;99983.19;5040913;28;20758;-64
2021/12/14 06:35:00;;;;;;;4.57;4.03;;;;;;;2.26;100.00;99980.66;5048829;28;20231;-64
2021/12/14 06:38:21;;;;;;;4.03;3.73;;;;;;;2.21;100.00;99975.47;5049493;28;20255;-65
2021/12/14 06:40:53;;;;;;;4.50;4.10;;;;;;;2.21;100.00;99987.41;5052532;28;20587;-64
2021/12/14 06:43:23;;;;;;;4.73;4.33;;;;;;;2.21;100.00;99985.72;5052389;28;20225;-63
2021/12/14 06:45:55;;;;;;;4.90;4.50;;;;;;;2.26;100.00;99991.75;5051839;28;20223;-65
2021/12/14 06:48:25;;;;;;;4.87;4.00;;;;;;;2.29;100.00;99985.81;5040202;28;20245;-64
2021/12/14 06:50:58;;;;;;;5.30;4.80;;;;;;;2.35;100.00;99991.00;5032404;28;20217;-64
2021/12/14 06:53:26;;;;;;;5.10;4.70;;;;;;;2.30;100.00;99993.50;5032317;28;20312;-63
2021/12/14 06:55:55;;;;;;;5.53;4.63;;;;;;;2.27;100.00;99990.91;5031669;28;20251;-63
2021/12/14 06:58:24;;;;;;;5.13;4.57;;;;;;;2.32;100.00;99998.66;5032295;28;20306;-64
2021/12/14 07:00:59;;;;;;;5.73;5.23;;;;;;;2.33;100.00;100000.38;5031657;28;20220;-64
2021/12/14 07:03:36;;;;;;;5.20;4.50;;;;;;;2.21;100.00;99977.19;5012428;28;20259;-65
2021/12/14 07:06:06;;;;;;;6.30;4.10;;;;;;;2.21;100.00;99975.47;5012070;28;20231;-64
2021/12/14 07:08:33;;;;;;;4.53;3.70;;;;;;;2.37;100.00;100007.25;5027543;28;20222;-64
2021/12/14 07:11:00;;;;;;;7.03;3.97;;;;;;;2.34;100.00;99999.53;5031590;28;20672;-63
2021/12/14 07:13:34;;;;;;;4.57;4.13;;;;;;;2.22;100.00;100000.25;5031920;28;20240;-64
2021/12/14 07:16:02;;;;;;;4.27;3.90;;;;;;;1.98;100.00;99982.88;5031062;28;20759;-64
2021/12/14 07:18:32;;;;;;;4.40;4.00;;;;;;;2.20;100.00;100007.03;5032199;28;20764;-64
2021/12/14 07:20:59;;;;;;;6.60;4.20;;;;;;;2.26;100.00;100013.97;5031737;28;20303;-62
2021/12/14 07:23:32;;;;;;;4.70;4.30;;;;;;;2.29;100.00;100002.03;5031894;28;20279;-63
2021/12/14 07:26:01;;;;;;;5.07;3.67;;;;;;;2.37;100.00;100008.09;5031730;28;20271;-64
2021/12/14 07:28:33;;;;;;;4.73;4.03;;;;;;;2.43;100.00;100007.31;5031739;28;20289;-64
2021/12/14 07:31:04;;;;;;;7.47;4.37;;;;;;;2.41;100.00;100015.00;5031329;28;20223;-64
2021/12/14 07:33:34;;;;;;;4.90;4.50;;;;;;;2.44;100.00;100015.03;5051829;28;20224;-63
2021/12/14 07:36:04;;;;;;;5.80;4.60;;;;;;;2.29;100.00;99996.03;5051304;28;20233;-63
2021/12/14 07:38:42;;;;;;;4.93;4.50;;;;;;;2.40;100.00;100012.41;5051347;28;20250;-61
2021/12/14 07:41:30;;;;;;;5.57;4.80;;;;;;;2.26;100.00;99993.47;5051035;28;20270;-61
2021/12/14 07:44:02;;;;;;;5.60;4.93;;;;;;;2.37;100.00;100012.38;5051441;28;20220;-61
2021/12/14 07:46:35;;;;;;;6.60;5.13;;;;;;;2.37;100.00;100004.72;5050792;28;20304;-61
2021/12/14 07:49:07;;;;;;;5.27;4.87;;;;;;;2.39;100.00;100015.81;5050756;28;20321;-62
2021/12/14 07:51:36;;;;;;;5.27;4.77;;;;;;;2.43;100.00;100025.25;5051016;28;20671;-61
2021/12/14 07:54:09;;;;;;;9.33;6.23;;;;;;;2.29;100.00;100026.78;5050989;28;20307;-61
2021/12/14 07:56:41;;;;;;;9.13;6.40;;;;;;;2.31;100.00;100027.66;5038042;28;20222;-63
2021/12/14 07:59:19;;;;;;;9.37;6.60;;;;;;;2.31;100.00;100030.22;5034100;28;20228;-67
2021/12/14 08:01:47;;;;;;;16.00;8.87;;;;;;;2.30;100.00;100031.06;5038096;28;20398;-66
2021/12/14 08:04:16;;;;;;;16.20;8.97;;;;;;;2.28;100.00;100028.47;5041750;28;20236;-66
2021/12/14 08:06:49;;;;;;;14.40;7.43;;;;;;;2.27;100.00;100028.47;5025494;28;20711;-66
2021/12/14 08:09:33;;;;;;;6.50;5.90;;;;;;;2.29;100.00;100034.47;5031674;28;20688;-66
2021/12/14 08:12:00;;;;;;;7.60;6.50;;;;;;;2.27;100.00;100039.56;5030512;28;20198;-65
2021/12/14 08:14:30;;;;;;;6.70;5.77;;;;;;;2.22;100.00;100041.22;5031782;28;20239;-65
2021/12/14 08:17:00;;;;;;;8.37;6.40;;;;;;;1.97;100.00;99983.69;5031871;28;20288;-65
2021/12/14 08:19:33;;;;;;;6.53;5.97;;;;;;;2.33;100.00;100038.78;5030908;28;20214;-67
2021/12/14 08:22:05;;;;;;;7.03;5.67;;;;;;;2.37;100.00;100043.13;5031665;28;20194;-65
2021/12/14 08:24:34;;;;;;;8.20;6.10;;;;;;;2.39;100.00;100033.72;5031254;28;20190;-64
2021/12/14 08:27:03;;;;;;;6.60;4.97;;;;;;;2.28;100.00;100032.75;5031416;28;20205;-63
2021/12/14 08:29:33;;;;;;;6.20;5.60;;;;;;;2.27;100.00;100046.38;5031709;28;20194;-63
2021/12/14 08:32:07;;;;;;;6.07;5.50;;;;;;;2.33;100.00;100046.47;5030789;28;20229;-63
2021/12/14 08:34:40;;;;;;;6.93;5.20;;;;;;;2.39;100.00;100031.16;5030883;28;20289;-66
2021/12/14 08:37:10;;;;;;;5.93;5.07;;;;;;;2.54;100.00;100051.88;5029816;28;20214;-63
2021/12/14 08:39:44;;;;;;;8.17;5.97;;;;;;;2.61;100.00;100038.28;5029913;28;20224;-64
2021/12/14 08:42:16;;;;;;;7.20;5.63;;;;;;;2.62;100.00;100046.81;5030448;28;20198;-63
2021/12/14 08:44:52;;;;;;;6.50;5.90;;;;;;;2.56;100.00;100047.63;5030004;28;20190;-63
2021/12/14 08:47:29;;;;;;;9.40;6.10;;;;;;;2.56;100.00;100042.50;5029750;28;20285;-62
2021/12/14 08:49:58;;;;;;;6.87;6.17;;;;;;;2.69;100.00;100044.38;5029521;28;20193;-63
2021/12/14 08:52:26;;;;;;;6.47;5.80;;;;;;;2.76;100.00;100042.72;5030504;28;20589;-64
2021/12/14 08:54:56;;;;;;;7.67;6.00;;;;;;;2.77;100.00;100036.75;5030463;28;20209;-63
2021/12/14 08:57:25;;;;;;;6.80;5.73;;;;;;;2.78;100.00;100034.22;5011093;28;20310;-65
2021/12/14 08:59:55;;;;;;;119.53;13.13;;;;;;;2.69;100.00;100008.50;5010254;28;20238;-63
2021/12/14 09:02:25;;;;;;;81.20;10.47;;;;;;;2.76;100.00;100011.97;5009197;28;20228;-63
2021/12/14 09:04:57;;;;;;;316.17;28.67;;;;;;;2.88;100.00;100033.47;5009936;28;20618;-66
2021/12/14 09:07:26;;;;;;;46.37;8.37;;;;;;;2.95;100.00;100025.81;5010164;28;20734;-66
2021/12/14 09:09:56;;;;;;;27.70;7.13;;;;;;;2.81;100.00;100029.13;5010344;28;20277;-65
2021/12/14 09:12:26;;;;;;;14.93;7.67;;;;;;;2.85;100.00;100030.84;5010187;28;20310;-69
2021/12/14 09:14:56;;;;;;;6.90;6.20;;;;;;;2.87;100.00;100036.00;5010178;28;20305;-65
2021/12/14 09:17:24;;;;;;;13.97;9.43;;;;;;;2.91;100.00;100033.50;5010326;28;20303;-65
2021/12/14 09:19:55;;;;;;;8.47;6.77;;;;;;;2.76;100.00;100005.13;5009565;28;20247;-66
2021/12/14 09:22:29;;;;;;;8.33;6.90;;;;;;;2.93;100.00;100015.56;5034336;28;20729;-66
2021/12/14 09:24:58;;;;;;;30.27;8.27;;;;;;;2.97;100.00;100013.88;5049809;28;20659;-66
2021/12/14 09:27:28;;;;;;;120.83;14.33;;;;;;;2.95;100.00;100013.84;5049482;28;20223;-66
2021/12/14 09:29:56;;;;;;;41.43;8.23;;;;;;;2.95;100.00;100013.84;5049664;28;20261;-66
2021/12/14 09:32:27;;;;;;;12.63;7.07;;;;;;;2.90;100.00;100003.56;5049378;28;20221;-65
2021/12/14 09:34:55;;;;;;;19.13;7.57;;;;;;;2.97;100.00;100003.63;5049443;28;20700;-65
2021/12/14 09:37:25;;;;;;;14.70;7.20;;;;;;;2.95;100.00;100005.31;5049382;28;20249;-64
2021/12/14 09:39:55;;;;;;;6.83;6.13;;;;;;;2.95;100.00;100001.03;5049797;28;20236;-64
2021/12/14 09:42:26;;;;;;;10.07;6.97;;;;;;;3.03;100.00;100001.13;5049222;28;20229;-65
2021/12/14 09:44:56;;;;;;;15.07;8.53;;;;;;;3.07;100.00;99992.59;5049329;28;20225;-64
2021/12/14 09:47:26;;;;;;;13.27;8.50;;;;;;;3.04;100.00;99992.59;5049416;28;20250;-64
2021/12/14 09:49:54;;;;;;;10.10;7.37;;;;;;;2.90;100.00;99984.75;5035710;28;20695;-64
2021/12/14 09:52:26;;;;;;;9.93;7.60;;;;;;;3.03;100.00;99993.44;5028978;28;20591;-66
2021/12/14 09:54:54;;;;;;;8.20;7.07;;;;;;;3.03;100.00;99996.00;5028996;28;20198;-67
2021/12/14 09:57:28;;;;;;;12.97;7.30;;;;;;;3.09;100.00;99991.78;5029695;28;20201;-68
2021/12/14 09:59:57;;;;;;;8.93;7.27;;;;;;;3.14;100.00;99991.81;5029716;28;20311;-67
2021/12/14 10:02:27;;;;;;;14.07;8.60;;;;;;;3.07;100.00;99993.47;5029610;28;20218;-68
2021/12/14 10:04:58;;;;;;;15.67;9.07;;;;;;;3.20;100.00;99995.28;5029368;28;20200;-68
2021/12/14 10:07:26;;;;;;;12.27;7.70;;;;;;;3.10;100.00;99977.25;5029612;28;20319;-67
2021/12/14 10:09:56;;;;;;;8.40;6.80;;;;;;;3.09;100.00;99976.38;5029413;28;20205;-67
2021/12/14 10:15:16;;;;;;;7.07;6.37;;;;;;;3.15;100.00;99978.16;5030269;28;20285;-68
2021/12/14 10:17:45;;;;;;;8.50;7.27;;;;;;;2.96;100.00;99950.63;5033333;28;20695;-67
2021/12/14 10:20:16;;;;;;;7.30;5.83;;;;;;;3.09;100.00;99976.38;5032949;28;20219;-67
2021/12/14 10:22:44;;;;;;;7.90;6.20;;;;;;;3.14;100.00;99974.72;5033176;28;20698;-68
2021/12/14 10:25:15;;;;;;;7.17;6.07;;;;;;;3.12;100.00;99975.56;5033110;28;20253;-68
2021/12/14 10:27:45;;;;;;;11.87;7.90;;;;;;;3.19;100.00;99970.47;5033104;28;20210;-64
2021/12/14 10:30:17;;;;;;;9.10;7.27;;;;;;;3.33;100.00;99970.59;5033179;28;20197;-66
2021/12/14 10:32:45;;;;;;;10.50;8.00;;;;;;;3.27;100.00;99980.81;5032916;28;20274;-67
2021/12/14 10:35:21;;;;;;;10.67;7.60;;;;;;;3.32;100.00;99979.13;5032436;28;20232;-65
2021/12/14 10:37:56;;;;;;;6.90;6.10;;;;;;;3.38;100.00;99976.63;5032149;28;20258;-64
2021/12/14 10:43:17;;;;;;;6.97;6.37;;;;;;;3.39;100.00;99965.50;5029186;28;20202;-66
2021/12/14 10:45:52;;;;;;;6.73;6.13;;;;;;;3.38;100.00;99963.81;5031515;28;20264;-66
2021/12/14 10:48:21;;;;;;;8.67;7.27;;;;;;;3.15;100.00;99932.00;5029096;28;20219;-67
2021/12/14 10:50:52;;;;;;;294.10;27.03;;;;;;;3.25;100.00;99931.22;5031074;28;20204;-66
2021/12/14 10:53:21;;;;;;;69.93;11.77;;;;;;;3.48;100.00;99972.44;5030060;28;21585;-65
2021/12/14 10:55:56;;;;;;;81.07;10.90;;;;;;;3.44;100.00;99957.84;5031580;28;20235;-67
2021/12/14 10:58:27;;;;;;;63.43;11.93;;;;;;;3.60;100.00;99963.09;5032260;28;20211;-69
2021/12/14 11:00:58;;;;;;;411.93;37.60;;;;;;;3.65;100.00;99966.53;5031882;28;20620;-66
2021/12/14 11:03:29;;;;;;;77.33;13.10;;;;;;;3.48;100.00;99939.94;5032646;28;20964;-65
2021/12/14 11:05:59;;;;;;;104.90;13.77;;;;;;;3.53;100.00;99953.63;5032699;28;20193;-67
2021/12/14 11:08:46;;;;;;;89.33;12.63;;;;;;;3.67;100.00;99961.41;5032444;28;20194;-66
2021/12/14 11:11:19;;;;;;;130.70;15.60;;;;;;;3.57;100.00;99955.38;5032214;28;20200;-64
2021/12/14 11:13:52;;;;;;;30.60;9.07;;;;;;;3.37;100.00;99915.91;5032101;28;20247;-67
2021/12/14 11:16:32;;;;;;;38.40;9.30;;;;;;;3.70;100.00;99952.88;5032174;28;20198;-69
2021/12/14 11:19:02;;;;;;;14.60;8.10;;;;;;;3.70;100.00;99958.03;5031417;28;20308;-69
2021/12/14 11:21:29;;;;;;;8.60;6.30;;;;;;;3.63;100.00;99957.09;5031498;28;20231;-69
2021/12/14 11:23:56;;;;;;;10.07;7.53;;;;;;;3.65;100.00;99953.69;5030586;28;20218;-69
2021/12/14 11:26:27;;;;;;;25.20;8.43;;;;;;;3.73;100.00;99950.31;5031775;28;20297;-69
2021/12/14 11:28:58;;;;;;;7.67;6.37;;;;;;;3.69;100.00;99946.88;5031717;28;20254;-66
2021/12/14 11:31:28;;;;;;;7.27;6.50;;;;;;;3.75;100.00;99958.88;5031691;28;20295;-66
2021/12/14 11:33:58;;;;;;;103.03;12.83;;;;;;;3.84;100.00;99953.78;5031960;28;20205;-68
2021/12/14 11:36:31;;;;;;;851.33;77.87;;;;;;;3.76;100.00;99922.97;5031689;28;20398;-64
2021/12/14 11:39:07;;;;;;;52.17;9.60;;;;;;;3.41;100.00;99880.84;5031605;28;20198;-69
2021/12/14 11:41:45;;;;;;;665.17;62.27;;;;;;;3.80;100.00;99947.81;5031694;28;20317;-69
2021/12/14 11:44:19;;;;;;;63.37;11.17;;;;;;;3.72;100.00;99948.63;5031840;28;20195;-69
2021/12/14 11:47:05;;;;;;;27.60;8.97;;;;;;;3.73;100.00;99950.31;5031850;28;20680;-69
2021/12/14 11:49:48;;;;;;;176.23;17.60;;;;;;;3.75;100.00;99946.91;5032039;28;20279;-69
2021/12/14 11:52:36;;;;;;;65.97;11.70;;;;;;;3.69;100.00;99918.66;5031646;28;20197;-75
2021/12/14 11:55:17;;;;;;;84.90;11.40;;;;;;;3.76;100.00;99938.34;5031729;28;20205;-75
2021/12/14 11:57:45;;;;;;;23.37;8.37;;;;;;;3.75;100.00;99944.34;5031695;28;20204;-74
2021/12/14 12:00:23;;;;;;;15.87;7.87;;;;;;;3.83;100.00;99944.41;5031836;28;20224;-75
2021/12/14 12:02:50;;;;;;;9.30;6.90;;;;;;;3.60;100.00;99919.47;5031882;28;20716;-74
2021/12/14 12:05:20;;;;;;;7.87;7.17;;;;;;;3.82;100.00;99942.69;5031284;28;20276;-66